Time;durP1;ratioP1;P1;durP2;ratioP2;P2;SDS_P1;SDS_P2;PMS_P1;PMS_P2;Temp;Humidity;BMP_temperature;BMP_pressure;BME280_temperature;BME280_humidity;BME280_pressure;Samples;Min_cycle;Max_cycle;Signal;HPM_P1;HPM_P2
2023/06/05 00:01:56;;;;;;;2.50;1.80;;;;;;;14.12;100.00;99686.41;5070384;28;20231;-77
2023/06/05 00:04:24;;;;;;;4.67;2.20;;;;;;;14.14;100.00;99689.69;5070225;28;20206;-77
2023/06/05 00:06:51;;;;;;;7.10;2.50;;;;;;;14.11;100.00;99689.94;5070354;28;20229;-77
2023/06/05 00:09:18;;;;;;;3.40;2.30;;;;;;;14.08;100.00;99685.03;5070481;28;20228;-77
2023/06/05 00:11:45;;;;;;;4.80;2.50;;;;;;;14.08;100.00;99687.59;5070050;28;20241;-77
2023/06/05 00:14:12;;;;;;;6.10;2.20;;;;;;;14.08;100.00;99682.44;5070385;28;20203;-77
2023/06/05 00:16:39;;;;;;;3.97;2.10;;;;;;;14.01;100.00;99683.84;5069745;28;20219;-77
2023/06/05 00:19:08;;;;;;;4.07;2.20;;;;;;;13.98;100.00;99695.19;5069807;28;20771;-77
2023/06/05 00:21:34;;;;;;;2.77;2.00;;;;;;;13.95;100.00;99684.31;5069766;28;20636;-77
2023/06/05 00:24:01;;;;;;;6.20;2.37;;;;;;;13.92;100.00;99681.97;5070840;28;20199;-77
2023/06/05 00:26:28;;;;;;;3.80;2.20;;;;;;;13.91;100.00;99683.75;5070147;28;20639;-77
2023/06/05 00:28:55;;;;;;;3.10;1.90;;;;;;;13.89;100.00;99684.78;5070722;28;20244;-77
2023/06/05 00:31:22;;;;;;;5.13;2.20;;;;;;;13.90;100.00;99686.41;5069861;28;20652;-77
2023/06/05 00:33:51;;;;;;;6.07;2.50;;;;;;;13.85;100.00;99683.41;5070552;28;20705;-77
2023/06/05 00:36:22;;;;;;;4.00;2.33;;;;;;;13.79;100.00;99679.53;5070334;28;20246;-77
2023/06/05 00:38:50;;;;;;;3.10;2.10;;;;;;;13.70;100.00;99683.63;5071333;28;20599;-77
2023/06/05 00:41:16;;;;;;;5.30;2.50;;;;;;;13.67;100.00;99690.72;5070775;28;20605;-77
2023/06/05 00:43:43;;;;;;;5.07;2.37;;;;;;;13.65;100.00;99678.00;5070874;28;20751;-77
2023/06/05 00:46:11;;;;;;;6.10;2.23;;;;;;;13.69;100.00;99679.41;5071045;28;20222;-77
2023/06/05 00:48:38;;;;;;;3.40;2.40;;;;;;;13.68;100.00;99688.06;5070680;28;20281;-77
2023/06/05 00:51:06;;;;;;;6.47;2.70;;;;;;;13.68;100.00;99688.06;5071392;28;20623;-77
2023/06/05 00:53:36;;;;;;;3.60;2.30;;;;;;;13.65;100.00;99690.88;5069915;28;20702;-77
2023/06/05 00:56:03;;;;;;;5.43;2.10;;;;;;;13.63;100.00;99690.16;5070416;28;20231;-77
2023/06/05 00:58:31;;;;;;;6.23;2.37;;;;;;;13.62;100.00;99678.25;5075538;28;20206;-77
2023/06/05 01:00:59;;;;;;;3.67;2.33;;;;;;;13.62;100.00;99683.38;5075154;28;20245;-77
2023/06/05 01:03:29;;;;;;;5.73;2.20;;;;;;;13.56;100.00;99686.41;5075865;28;20200;-77
2023/06/05 01:06:02;;;;;;;5.17;2.57;;;;;;;13.54;100.00;99680.56;5075865;28;20286;-77
2023/06/05 01:08:38;;;;;;;3.97;2.40;;;;;;;13.49;100.00;99682.66;5075839;28;20647;-77
2023/06/05 01:11:14;;;;;;;4.73;2.40;;;;;;;13.47;100.00;99687.13;5074933;28;20225;-77
2023/06/05 01:13:48;;;;;;;2.77;2.10;;;;;;;13.49;100.00;99682.66;5075442;28;20300;-77
2023/06/05 01:16:15;;;;;;;3.80;2.40;;;;;;;13.46;100.00;99677.75;5074711;28;20225;-77
2023/06/05 01:18:45;;;;;;;5.30;2.50;;;;;;;13.44;100.00;99680.44;5074184;28;20195;-77
2023/06/05 01:21:14;;;;;;;4.50;2.37;;;;;;;13.45;100.00;99682.06;5074481;28;20716;-77
2023/06/05 01:23:44;;;;;;;5.13;2.43;;;;;;;13.42;100.00;99676.34;5074188;28;20206;-77
2023/06/05 01:26:19;;;;;;;5.37;2.60;;;;;;;13.36;100.00;99665.59;5074749;28;20689;-77
2023/06/05 01:28:50;;;;;;;3.53;2.20;;;;;;;13.41;100.00;99674.69;5074897;28;20588;-77
2023/06/05 01:31:21;;;;;;;4.37;2.50;;;;;;;13.40;100.00;99668.75;5073606;28;20218;-77
2023/06/05 01:33:52;;;;;;;4.17;2.50;;;;;;;13.35;100.00;99666.53;5075002;28;20198;-77
2023/06/05 01:36:20;;;;;;;4.10;2.60;;;;;;;13.30;100.00;99681.47;5074460;28;20219;-77
2023/06/05 01:38:50;;;;;;;2.97;2.17;;;;;;;13.31;100.00;99670.25;5074991;28;20230;-77
2023/06/05 01:41:17;;;;;;;4.80;2.70;;;;;;;13.29;100.00;99666.16;5073637;28;20611;-77
2023/06/05 01:43:46;;;;;;;4.40;2.70;;;;;;;13.23;100.00;99687.94;5074154;28;20209;-77
2023/06/05 01:46:14;;;;;;;4.97;2.90;;;;;;;13.21;100.00;99679.56;5073710;28;20230;-77
2023/06/05 01:48:42;;;;;;;3.70;2.43;;;;;;;13.21;100.00;99678.75;5074689;28;20292;-77
2023/06/05 01:51:09;;;;;;;5.10;2.60;;;;;;;13.20;100.00;99682.22;5073801;28;20237;-77
2023/06/05 01:53:36;;;;;;;3.87;2.20;;;;;;;13.21;100.00;99682.13;5073629;28;20285;-77
2023/06/05 01:56:06;;;;;;;6.90;2.60;;;;;;;13.22;100.00;99681.19;5073852;28;20229;-77
2023/06/05 01:58:33;;;;;;;4.73;2.70;;;;;;;13.24;100.00;99679.31;5073797;28;20228;-77
2023/06/05 02:01:00;;;;;;;5.77;2.77;;;;;;;13.27;100.00;99673.19;5073613;28;20238;-77
2023/06/05 02:03:27;;;;;;;5.83;2.73;;;;;;;13.24;100.00;99671.63;5073867;28;20199;-77
2023/06/05 02:05:54;;;;;;;4.87;2.60;;;;;;;13.19;100.00;99678.84;5073992;28;20224;-77
2023/06/05 02:08:22;;;;;;;3.87;2.30;;;;;;;13.17;100.00;99680.69;5073067;28;20281;-77
2023/06/05 02:10:49;;;;;;;4.33;2.57;;;;;;;13.18;100.00;99674.66;5073612;28;20241;-77
2023/06/05 02:13:18;;;;;;;4.37;2.53;;;;;;;13.25;100.00;99672.44;5073133;28;20202;-77
2023/06/05 02:15:45;;;;;;;4.73;2.70;;;;;;;13.25;100.00;99660.44;5072688;28;20710;-77
2023/06/05 02:18:12;;;;;;;3.00;2.30;;;;;;;13.25;100.00;99660.44;5072401;28;20206;-77
2023/06/05 02:20:41;;;;;;;6.33;2.50;;;;;;;13.28;100.00;99664.53;5072586;28;20232;-77
2023/06/05 02:23:08;;;;;;;3.80;2.70;;;;;;;13.27;100.00;99663.72;5072434;28;20205;-77
2023/06/05 02:25:35;;;;;;;6.23;2.47;;;;;;;13.30;100.00;99668.63;5072094;28;20272;-77
2023/06/05 02:28:02;;;;;;;4.10;2.50;;;;;;;13.34;100.00;99661.50;5072145;28;20267;-77
2023/06/05 02:30:30;;;;;;;3.57;2.53;;;;;;;13.35;100.00;99663.13;5072227;28;20230;-77
2023/06/05 02:33:00;;;;;;;4.50;2.73;;;;;;;13.35;100.00;99661.41;5072644;28;20208;-77
2023/06/05 02:35:27;;;;;;;4.50;2.53;;;;;;;13.36;100.00;99652.75;5072130;28;20232;-77
2023/06/05 02:37:56;;;;;;;5.67;2.57;;;;;;;13.39;100.00;99656.03;5071935;28;20206;-77
2023/06/05 02:40:23;;;;;;;4.17;2.80;;;;;;;13.42;100.00;99654.06;5071730;28;20251;-77
2023/06/05 02:42:50;;;;;;;4.33;2.47;;;;;;;13.44;100.00;99653.91;5072162;28;20583;-77
2023/06/05 02:45:17;;;;;;;8.00;2.77;;;;;;;13.47;100.00;99646.81;5071723;28;20223;-77
2023/06/05 02:47:45;;;;;;;4.97;2.60;;;;;;;13.48;100.00;99650.22;5072280;28;20634;-77
2023/06/05 02:50:12;;;;;;;9.77;2.77;;;;;;;13.51;100.00;99649.97;5071782;28;20227;-77
2023/06/05 02:52:39;;;;;;;5.83;2.53;;;;;;;13.49;100.00;99646.69;5071625;28;20254;-77
2023/06/05 02:55:07;;;;;;;4.67;2.77;;;;;;;13.53;100.00;99658.41;5071397;28;20221;-77
2023/06/05 02:57:41;;;;;;;5.03;2.93;;;;;;;13.55;100.00;99662.44;5071435;28;20202;-77
2023/06/05 03:00:09;;;;;;;5.27;3.10;;;;;;;13.61;100.00;99661.19;5071798;28;20655;-77
2023/06/05 03:02:37;;;;;;;5.17;2.90;;;;;;;13.65;100.00;99657.47;5071431;28;20729;-77
2023/06/05 03:05:07;;;;;;;12.63;2.90;;;;;;;13.72;100.00;99658.63;5071620;28;20219;-77
2023/06/05 03:07:34;;;;;;;8.80;2.87;;;;;;;13.78;100.00;99660.72;5071243;28;20230;-77
2023/06/05 03:10:01;;;;;;;6.80;2.93;;;;;;;13.84;100.00;99661.19;5071432;28;20218;-77
2023/06/05 03:12:28;;;;;;;3.70;2.60;;;;;;;13.88;100.00;99653.13;5071716;28;20203;-77
2023/06/05 03:14:55;;;;;;;5.90;2.90;;;;;;;13.95;100.00;99653.47;5071347;28;20242;-77
2023/06/05 03:17:23;;;;;;;4.30;2.53;;;;;;;14.01;100.00;99653.00;5071313;28;20674;-77
2023/06/05 03:19:50;;;;;;;4.10;2.80;;;;;;;14.10;100.00;99656.59;5070876;28;20227;-77
2023/06/05 03:22:19;;;;;;;4.23;2.50;;;;;;;14.17;100.00;99656.03;5071337;28;20226;-77
2023/06/05 03:24:46;;;;;;;4.47;2.50;;;;;;;14.20;100.00;99653.22;5071464;28;20214;-77
2023/06/05 03:27:13;;;;;;;7.97;2.50;;;;;;;14.24;100.00;99648.63;5071064;28;20200;-77
2023/06/05 03:29:40;;;;;;;5.13;3.00;;;;;;;14.29;100.00;99643.94;5071625;28;20229;-77
2023/06/05 03:32:07;;;;;;;4.87;2.73;;;;;;;14.36;100.00;99642.50;5078455;28;20257;-77
2023/06/05 03:34:36;;;;;;;6.57;2.93;;;;;;;14.41;100.00;99639.59;5072092;28;20233;-77
2023/06/05 03:37:03;;;;;;;3.67;2.27;;;;;;;14.44;100.00;99640.16;5071253;28;20252;-77
2023/06/05 03:39:31;;;;;;;4.87;2.77;;;;;;;14.49;100.00;99647.53;5070369;28;20203;-77
2023/06/05 03:41:58;;;;;;;5.13;2.87;;;;;;;14.51;100.00;99650.78;5070803;28;20234;-77
2023/06/05 03:44:25;;;;;;;6.10;2.30;;;;;;;14.52;100.00;99652.47;5070934;28;20212;-77
2023/06/05 03:46:52;;;;;;;5.00;2.83;;;;;;;14.54;100.00;99645.41;5070375;28;20226;-77
2023/06/05 03:49:20;;;;;;;4.50;2.77;;;;;;;14.55;100.00;99644.50;5070841;28;20199;-77
2023/06/05 03:51:47;;;;;;;5.97;3.13;;;;;;;14.58;100.00;99657.13;5070952;28;20679;-76
2023/06/05 03:54:16;;;;;;;4.77;2.80;;;;;;;14.61;100.00;99651.72;5070554;28;20674;-77
2023/06/05 03:56:49;;;;;;;5.00;3.03;;;;;;;14.66;100.00;99647.03;5070246;28;20222;-77
2023/06/05 03:59:19;;;;;;;4.37;2.83;;;;;;;14.66;100.00;99644.44;5070601;28;20208;-77
2023/06/05 04:01:46;;;;;;;4.97;2.83;;;;;;;14.71;100.00;99647.44;5070592;28;20236;-76
2023/06/05 04:04:13;;;;;;;5.10;2.77;;;;;;;14.76;100.00;99648.84;5071134;28;20340;-77
2023/06/05 04:06:41;;;;;;;4.97;2.80;;;;;;;14.75;100.00;99652.34;5070967;28;20242;-77
2023/06/05 04:09:11;;;;;;;4.73;2.70;;;;;;;14.82;100.00;99658.66;5070769;28;20213;-77
2023/06/05 04:11:39;;;;;;;5.20;2.47;;;;;;;14.83;100.00;99665.44;5070695;28;20223;-77
2023/06/05 04:14:07;;;;;;;3.93;2.43;;;;;;;14.87;100.00;99661.69;5070412;28;20247;-76
2023/06/05 04:16:34;;;;;;;5.23;2.70;;;;;;;14.91;100.00;99652.75;5070010;28;20298;-77
2023/06/05 04:19:01;;;;;;;3.67;2.40;;;;;;;14.94;100.00;99655.06;5070709;28;20243;-77
2023/06/05 04:21:28;;;;;;;3.00;2.30;;;;;;;14.97;100.00;99657.41;5070697;28;20259;-77
2023/06/05 04:23:55;;;;;;;3.17;2.10;;;;;;;15.03;100.00;99658.66;5070456;28;20200;-77
2023/06/05 04:26:24;;;;;;;6.07;2.77;;;;;;;15.08;100.00;99659.94;5070393;28;20254;-77
2023/06/05 04:28:51;;;;;;;5.03;2.80;;;;;;;15.14;100.00;99662.00;5070917;28;20630;-77
2023/06/05 04:31:19;;;;;;;3.90;2.40;;;;;;;15.24;100.00;99663.81;5072814;28;20230;-77
2023/06/05 04:33:46;;;;;;;10.00;2.80;;;;;;;15.31;100.00;99665.75;5075860;28;20195;-77
2023/06/05 04:36:13;;;;;;;3.57;2.50;;;;;;;15.37;100.00;99665.25;5074724;28;20225;-77
2023/06/05 04:38:39;;;;;;;4.40;2.43;;;;;;;15.33;100.00;99663.03;5076177;28;20445;-77
2023/06/05 04:41:06;;;;;;;4.73;2.50;;;;;;;15.29;100.00;99662.50;5076222;28;20218;-77
2023/06/05 04:43:33;;;;;;;6.20;2.70;;;;;;;15.36;100.00;99665.41;5075878;28;20209;-77
2023/06/05 04:46:01;;;;;;;3.70;2.47;;;;;;;15.31;100.00;99667.53;5076910;28;20248;-77
2023/06/05 04:48:30;;;;;;;6.63;2.80;;;;;;;15.48;100.00;99672.09;5077732;28;20201;-77
2023/06/05 04:50:57;;;;;;;7.30;2.80;;;;;;;15.63;100.00;99680.31;5077001;28;20227;-77
2023/06/05 04:53:28;;;;;;;4.20;2.70;;;;;;;15.71;100.00;99679.72;5078994;28;20206;-77
2023/06/05 04:55:55;;;;;;;5.30;2.90;;;;;;;15.88;100.00;99678.25;5079306;28;20243;-77
2023/06/05 04:58:22;;;;;;;4.57;2.70;;;;;;;15.98;100.00;99674.78;5075153;28;20203;-77
2023/06/05 05:00:49;;;;;;;4.27;2.43;;;;;;;16.09;100.00;99680.78;5076211;28;20219;-77
2023/06/05 05:03:17;;;;;;;4.13;2.70;;;;;;;16.16;100.00;99674.97;5076580;28;20422;-77
2023/06/05 05:05:45;;;;;;;3.63;2.43;;;;;;;16.07;100.00;99673.97;5075862;28;20226;-77
2023/06/05 05:08:12;;;;;;;5.23;2.80;;;;;;;16.15;100.00;99675.91;5075815;28;20775;-77
2023/06/05 05:10:39;;;;;;;3.83;2.40;;;;;;;16.26;100.00;99680.13;5075725;28;20227;-77
2023/06/05 05:13:06;;;;;;;5.30;2.97;;;;;;;16.32;100.00;99677.03;5075956;28;20198;-78
2023/06/05 05:15:33;;;;;;;7.33;2.60;;;;;;;16.41;100.00;99685.75;5076742;28;20228;-78
2023/06/05 05:18:03;;;;;;;4.50;2.60;;;;;;;16.44;100.00;99683.72;5078480;28;20657;-78
2023/06/05 05:20:32;;;;;;;4.97;2.33;;;;;;;16.43;100.00;99682.06;5077942;28;20217;-79
2023/06/05 05:23:01;;;;;;;6.87;2.27;;;;;;;16.50;100.00;99695.28;5077734;28;20264;-78
2023/06/05 05:25:28;;;;;;;5.20;2.43;;;;;;;16.57;100.00;99691.19;5077994;28;20270;-79
2023/06/05 05:27:55;;;;;;;6.97;2.53;;;;;;;16.63;100.00;99687.25;5076710;28;20220;-78
2023/06/05 05:30:22;;;;;;;5.30;2.80;;;;;;;16.73;100.00;99701.00;5078075;28;20248;-77
2023/06/05 05:32:48;;;;;;;3.47;2.43;;;;;;;16.64;100.00;99702.63;5079138;28;20198;-77
2023/06/05 05:35:15;;;;;;;3.27;2.37;;;;;;;16.66;100.00;99700.72;5078101;28;20229;-77
2023/06/05 05:37:42;;;;;;;3.40;2.40;;;;;;;16.65;100.00;99699.09;5076289;28;20288;-78
2023/06/05 05:40:12;;;;;;;6.23;2.40;;;;;;;16.78;100.00;99705.78;5076758;28;20239;-77
2023/06/05 05:42:39;;;;;;;3.50;2.27;;;;;;;16.90;100.00;99712.44;5076608;28;20243;-76
2023/06/05 05:45:07;;;;;;;4.63;2.50;;;;;;;16.99;100.00;99724.56;5080125;28;20225;-78
2023/06/05 05:47:33;;;;;;;4.73;2.40;;;;;;;17.10;100.00;99718.41;5081097;28;20256;-78
2023/06/05 05:50:00;;;;;;;4.17;2.50;;;;;;;17.20;100.00;99719.25;5076167;28;20614;-77
2023/06/05 05:52:27;;;;;;;5.73;2.50;;;;;;;17.24;100.00;99718.00;5077125;28;20199;-78
2023/06/05 05:54:54;;;;;;;3.77;2.50;;;;;;;17.24;100.00;99712.81;5075210;28;20217;-81
2023/06/05 05:57:22;;;;;;;4.53;2.53;;;;;;;17.43;100.00;99715.38;5073770;28;20261;-78
2023/06/05 05:59:49;;;;;;;5.53;2.00;;;;;;;17.58;100.00;99717.53;5075097;28;20226;-80
2023/06/05 06:02:16;;;;;;;3.40;2.30;;;;;;;17.70;100.00;99721.56;5074291;28;20238;-80
2023/06/05 06:04:45;;;;;;;3.73;2.40;;;;;;;17.83;100.00;99722.13;5073900;28;20582;-80
2023/06/05 06:07:12;;;;;;;3.60;2.20;;;;;;;17.91;100.00;99718.00;5074461;28;20687;-79
2023/06/05 06:09:40;;;;;;;2.80;1.90;;;;;;;17.99;100.00;99731.03;5074301;28;20200;-80
2023/06/05 06:12:08;;;;;;;3.63;2.43;;;;;;;18.13;100.00;99727.97;5074320;28;20199;-80
2023/06/05 06:14:36;;;;;;;3.50;2.13;;;;;;;18.22;100.00;99734.88;5074281;28;20290;-79
2023/06/05 06:17:05;;;;;;;3.87;2.30;;;;;;;18.32;100.00;99738.25;5074317;28;20263;-80
2023/06/05 06:19:32;;;;;;;3.60;2.30;;;;;;;18.43;100.00;99747.56;5074579;28;20208;-80
2023/06/05 06:22:00;;;;;;;3.43;2.20;;;;;;;18.50;100.00;99745.22;5073669;28;20235;-80
2023/06/05 06:24:26;;;;;;;3.03;2.13;;;;;;;18.55;100.00;99748.19;5073784;28;20201;-80
2023/06/05 06:26:54;;;;;;;2.50;1.90;;;;;;;18.76;100.00;99745.34;5073654;28;20235;-80
2023/06/05 06:29:23;;;;;;;3.17;2.10;;;;;;;18.81;100.00;99750.91;5074865;28;20209;-80
2023/06/05 06:31:52;;;;;;;3.20;2.00;;;;;;;18.76;100.00;99746.19;5073549;28;20225;-80
2023/06/05 06:34:18;;;;;;;3.33;2.07;;;;;;;18.94;100.00;99751.34;5073735;28;20675;-80
2023/06/05 06:36:46;;;;;;;4.97;1.97;;;;;;;18.96;100.00;99743.41;5073678;28;20224;-80
2023/06/05 06:39:13;;;;;;;4.07;2.10;;;;;;;18.93;100.00;99735.94;5074493;28;20197;-80
2023/06/05 06:41:40;;;;;;;4.10;1.97;;;;;;;19.11;100.00;99739.38;5074223;28;20214;-79
2023/06/05 06:44:07;;;;;;;3.63;2.00;;;;;;;19.15;100.00;99740.69;5074636;28;20234;-79
2023/06/05 06:46:34;;;;;;;3.33;2.20;;;;;;;19.20;100.00;99735.06;5073023;28;20237;-79
2023/06/05 06:49:02;;;;;;;4.43;2.10;;;;;;;19.31;100.00;99731.38;5074033;28;20551;-79
2023/06/05 06:51:29;;;;;;;4.30;2.10;;;;;;;19.53;100.00;99728.31;5074109;28;20775;-80
2023/06/05 06:53:56;;;;;;;2.80;2.10;;;;;;;19.69;100.00;99725.00;5074226;28;20578;-80
2023/06/05 06:56:23;;;;;;;4.03;2.00;;;;;;;19.76;100.00;99723.44;5073067;28;20247;-80
2023/06/05 06:58:50;;;;;;;5.70;2.40;;;;;;;19.94;98.58;99720.78;5072964;28;20200;-80
2023/06/05 07:01:19;;;;;;;3.90;2.00;;;;;;;20.05;100.00;99712.72;5072702;28;20225;-79
2023/06/05 07:03:46;;;;;;;3.33;2.03;;;;;;;20.26;100.00;99711.47;5074516;28;20233;-79
2023/06/05 07:06:15;;;;;;;4.77;2.23;;;;;;;20.48;98.42;99717.88;5073289;28;20229;-79
2023/06/05 07:08:41;;;;;;;2.77;1.90;;;;;;;20.61;98.85;99728.63;5074543;28;20205;-78
2023/06/05 07:11:08;;;;;;;2.23;1.83;;;;;;;20.73;96.95;99732.53;5073501;28;20225;-79
2023/06/05 07:13:35;;;;;;;2.30;1.63;;;;;;;20.98;95.77;99736.00;5072723;28;20665;-80
2023/06/05 07:16:02;;;;;;;4.03;2.10;;;;;;;21.22;96.23;99747.38;5072446;28;20227;-79
2023/06/05 07:18:29;;;;;;;2.45;1.80;;;;;;;21.21;88.82;99748.34;5073963;28;20205;-78
2023/06/05 07:20:56;;;;;;;2.30;1.73;;;;;;;21.18;89.12;99746.06;5075966;28;20309;-78
2023/06/05 07:23:24;;;;;;;2.60;1.63;;;;;;;21.36;86.78;99736.34;5074120;28;20226;-77
2023/06/05 07:25:52;;;;;;;2.78;1.63;;;;;;;21.44;90.26;99736.31;5075790;28;20218;-78
2023/06/05 07:28:19;;;;;;;1.42;1.33;;;;;;;21.64;87.35;99735.94;5075698;28;20245;-77
2023/06/05 07:30:45;;;;;;;4.70;2.00;;;;;;;21.74;85.46;99741.78;5073396;28;20218;-77
2023/06/05 07:33:13;;;;;;;3.05;2.00;;;;;;;21.99;87.11;99729.50;5074703;28;20198;-78
2023/06/05 07:35:40;;;;;;;3.53;1.77;;;;;;;22.21;86.27;99727.16;5074233;28;20215;-78
2023/06/05 07:38:06;;;;;;;2.83;1.73;;;;;;;22.52;86.69;99724.56;5078125;28;20648;-79
2023/06/05 07:40:35;;;;;;;67.00;34.30;;;;;;;22.70;83.27;99719.88;5075831;28;20295;-77
2023/06/05 07:43:01;;;;;;;7.20;3.92;;;;;;;22.90;83.48;99727.22;5075365;28;20578;-79
2023/06/05 07:45:28;;;;;;;96.30;44.53;;;;;;;23.09;82.69;99720.72;5075178;28;20249;-78
2023/06/05 07:47:55;;;;;;;2.40;1.95;;;;;;;23.05;79.42;99725.50;5074542;28;20210;-77
2023/06/05 07:50:22;;;;;;;4.18;1.80;;;;;;;23.39;81.37;99721.63;5074075;28;20245;-78
2023/06/05 07:52:49;;;;;;;2.78;2.15;;;;;;;23.47;82.62;99729.34;5076199;28;20719;-80
2023/06/05 07:55:17;;;;;;;2.30;1.77;;;;;;;23.44;79.46;99720.06;5073685;28;20242;-79
2023/06/05 07:57:45;;;;;;;2.22;1.77;;;;;;;23.49;80.55;99722.97;5074659;28;20620;-78
2023/06/05 08:00:13;;;;;;;13.65;10.00;;;;;;;23.59;83.12;99724.50;5072927;28;20215;-79
2023/06/05 08:02:40;;;;;;;5.10;3.00;;;;;;;23.91;82.86;99715.50;5072582;28;20317;-79
2023/06/05 08:05:08;;;;;;;4.85;1.95;;;;;;;24.09;84.65;99708.09;5072811;28;20215;-79
2023/06/05 08:07:35;;;;;;;2.38;1.98;;;;;;;24.29;83.95;99707.50;5072871;28;20198;-79
2023/06/05 08:10:01;;;;;;;4.80;1.85;;;;;;;24.50;82.83;99715.41;5072406;28;20732;-78
2023/06/05 08:12:28;;;;;;;6.05;2.30;;;;;;;24.68;82.54;99716.78;5074012;28;20329;-79
2023/06/05 08:14:57;;;;;;;3.28;2.28;;;;;;;24.94;83.38;99722.25;5073887;28;20214;-79
2023/06/05 08:17:23;;;;;;;5.25;1.77;;;;;;;25.26;77.44;99720.13;5072560;28;20207;-79
2023/06/05 08:19:50;;;;;;;4.20;2.20;;;;;;;25.34;76.97;99721.75;5072375;28;20222;-78
2023/06/05 08:22:17;;;;;;;4.32;2.00;;;;;;;25.60;78.06;99721.13;5073483;28;20203;-78
2023/06/05 08:24:44;;;;;;;2.72;1.98;;;;;;;25.80;77.69;99721.22;5072046;28;20256;-79
2023/06/05 08:27:11;;;;;;;3.38;2.05;;;;;;;25.55;74.77;99729.56;5074842;28;20222;-78
2023/06/05 08:29:37;;;;;;;2.55;1.90;;;;;;;25.68;79.77;99724.41;5074248;28;20207;-79
2023/06/05 08:32:06;;;;;;;2.97;2.05;;;;;;;25.71;76.99;99720.59;5074562;28;20650;-78
2023/06/05 08:34:33;;;;;;;3.22;2.20;;;;;;;25.90;79.29;99712.06;5076266;28;20875;-78
2023/06/05 08:37:00;;;;;;;3.55;2.20;;;;;;;26.10;73.75;99716.56;5076235;28;20198;-78
2023/06/05 08:39:31;;;;;;;3.53;2.28;;;;;;;25.93;73.64;99714.28;5073934;28;20198;-77
2023/06/05 08:41:59;;;;;;;2.72;2.20;;;;;;;25.72;70.65;99716.97;5074862;28;20206;-77
2023/06/05 08:44:26;;;;;;;2.40;2.00;;;;;;;25.85;78.17;99713.63;5075676;28;20317;-78
2023/06/05 08:47:00;;;;;;;3.38;2.15;;;;;;;25.91;75.81;99713.66;5076030;28;20218;-77
2023/06/05 08:49:30;;;;;;;3.97;2.10;;;;;;;25.84;77.88;99706.78;5077699;28;20260;-78
2023/06/05 08:52:02;;;;;;;3.80;2.30;;;;;;;25.69;75.77;99706.91;5077230;28;20199;-77
2023/06/05 08:54:35;;;;;;;3.05;2.28;;;;;;;25.79;77.91;99709.94;5073070;28;20633;-77
2023/06/05 08:57:04;;;;;;;3.72;2.13;;;;;;;25.64;74.88;99717.94;5074797;28;20202;-77
2023/06/05 08:59:31;;;;;;;2.80;2.25;;;;;;;25.73;77.32;99721.22;5075428;28;20204;-77
2023/06/05 09:01:58;;;;;;;4.63;2.35;;;;;;;25.83;75.81;99720.88;5073985;28;20199;-77
2023/06/05 09:04:25;;;;;;;6.20;2.40;;;;;;;25.89;74.58;99726.16;5076428;28;20237;-77
2023/06/05 09:06:53;;;;;;;4.78;2.42;;;;;;;25.80;75.38;99722.03;5076239;28;20644;-77
2023/06/05 09:09:21;;;;;;;3.00;2.10;;;;;;;25.85;75.65;99726.75;5075733;28;20217;-77
2023/06/05 09:11:47;;;;;;;3.95;2.50;;;;;;;25.93;71.40;99727.38;5075345;28;20215;-78
2023/06/05 09:14:14;;;;;;;3.47;2.00;;;;;;;26.14;72.17;99728.28;5078295;28;20205;-78
2023/06/05 09:16:43;;;;;;;2.42;1.90;;;;;;;26.22;73.16;99715.00;5074057;28;20610;-78
2023/06/05 09:19:10;;;;;;;3.55;2.53;;;;;;;26.53;70.27;99732.03;5077976;28;20270;-78
2023/06/05 09:21:37;;;;;;;6.47;2.28;;;;;;;26.49;72.89;99720.28;5078880;28;20219;-77
2023/06/05 09:24:17;;;;;;;2.55;1.92;;;;;;;26.81;71.20;99714.31;5078098;28;20238;-77
2023/06/05 09:26:48;;;;;;;2.97;2.35;;;;;;;27.02;69.29;99717.75;5077129;28;20217;-78
2023/06/05 09:29:21;;;;;;;4.90;2.20;;;;;;;27.25;65.62;99715.53;5080469;28;20679;-77
2023/06/05 09:31:47;;;;;;;4.20;2.10;;;;;;;27.17;65.79;99718.38;5080921;28;20262;-77
2023/06/05 09:34:24;;;;;;;4.15;2.20;;;;;;;27.18;70.24;99724.44;5079208;28;20299;-77
2023/06/05 09:36:51;;;;;;;5.32;2.22;;;;;;;27.28;68.59;99720.38;5076292;28;20222;-77
2023/06/05 09:39:21;;;;;;;6.75;2.35;;;;;;;27.14;65.33;99729.28;5078355;28;20591;-77
2023/06/05 09:41:51;;;;;;;4.03;1.98;;;;;;;27.06;65.54;99730.28;5077723;28;20229;-77
2023/06/05 09:44:18;;;;;;;2.70;2.10;;;;;;;27.16;63.50;99726.44;5076825;28;20246;-78
2023/06/05 09:46:55;;;;;;;3.00;2.10;;;;;;;27.44;65.88;99720.97;5077530;28;20218;-77
2023/06/05 09:49:24;;;;;;;2.58;2.00;;;;;;;27.47;66.13;99716.13;5079879;28;20293;-76
2023/06/05 09:51:51;;;;;;;1.92;1.73;;;;;;;27.50;63.71;99717.53;5077020;28;20276;-77
2023/06/05 09:54:22;;;;;;;3.10;2.05;;;;;;;27.50;63.78;99718.31;5075978;28;20566;-77
2023/06/05 09:56:52;;;;;;;2.60;1.98;;;;;;;27.61;62.14;99719.53;5076097;28;20255;-77
2023/06/05 09:59:22;;;;;;;2.78;2.20;;;;;;;27.49;61.96;99705.41;5075064;28;20631;-77
2023/06/05 10:01:51;;;;;;;3.33;2.15;;;;;;;27.14;60.55;99703.03;5076545;28;20211;-77
2023/06/05 10:04:21;;;;;;;3.20;2.28;;;;;;;27.26;66.56;99704.03;5076844;28;20281;-78
2023/06/05 10:06:50;;;;;;;3.20;2.38;;;;;;;27.23;64.55;99707.06;5075365;28;20211;-77
2023/06/05 10:09:17;;;;;;;2.97;2.10;;;;;;;27.26;63.18;99705.84;5074534;28;20206;-77
2023/06/05 10:11:49;;;;;;;2.92;2.33;;;;;;;27.43;65.61;99703.59;5074569;28;20229;-77
2023/06/05 10:14:16;;;;;;;2.85;2.20;;;;;;;27.60;65.45;99702.13;5075535;28;20211;-77
2023/06/05 10:16:44;;;;;;;4.53;2.92;;;;;;;27.57;61.28;99697.28;5075281;28;20276;-77
2023/06/05 10:19:12;;;;;;;4.20;2.40;;;;;;;27.65;66.94;99698.88;5075005;28;20206;-77
2023/06/05 10:21:39;;;;;;;3.70;2.75;;;;;;;27.47;65.69;99696.94;5076235;28;20305;-77
2023/06/05 10:24:10;;;;;;;2.85;2.30;;;;;;;27.59;61.37;99705.78;5077761;28;20257;-77
2023/06/05 10:27:15;;;;;;;5.25;2.90;;;;;;;27.67;62.67;99705.56;5074706;28;20227;-77
2023/06/05 10:30:09;;;;;;;4.72;2.58;;;;;;;27.51;60.99;99704.16;5076011;28;20693;-77
2023/06/05 10:32:46;;;;;;;3.55;2.58;;;;;;;27.54;60.49;99702.94;5029804;28;20650;-77
2023/06/05 10:35:27;;;;;;;3.85;2.45;;;;;;;27.67;63.92;99691.63;5075924;28;20219;-77
2023/06/05 10:38:09;;;;;;;2.92;2.10;;;;;;;27.56;61.11;99700.94;5074539;28;20201;-76
2023/06/05 10:40:36;;;;;;;4.68;2.17;;;;;;;27.50;63.03;99692.06;5074464;28;20704;-77
2023/06/05 10:43:27;;;;;;;2.60;2.05;;;;;;;27.35;58.49;99695.94;5074656;28;20570;-77
2023/06/05 10:45:54;;;;;;;2.90;2.08;;;;;;;27.33;58.67;99692.72;5074838;28;20231;-77
2023/06/05 10:48:21;;;;;;;4.88;1.85;;;;;;;27.31;58.58;99691.09;5074756;28;20210;-76
2023/06/05 10:50:48;;;;;;;3.88;2.00;;;;;;;27.25;58.47;99693.72;5075437;28;20660;-77
2023/06/05 10:53:43;;;;;;;2.45;1.80;;;;;;;27.23;54.99;99687.88;5073117;28;20487;-77
2023/06/05 10:56:30;;;;;;;3.20;1.80;;;;;;;27.32;55.30;99684.03;5074352;28;20219;-77
2023/06/05 10:59:14;;;;;;;3.80;1.88;;;;;;;27.39;56.95;99684.00;5076016;28;20206;-77
2023/06/05 11:01:41;;;;;;;3.17;1.63;;;;;;;27.48;54.90;99674.88;5075817;28;20233;-77
2023/06/05 11:04:08;;;;;;;2.70;1.83;;;;;;;27.62;56.22;99679.09;5074976;28;20624;-77
2023/06/05 11:06:37;;;;;;;2.00;1.75;;;;;;;27.63;54.80;99674.63;5075457;28;20220;-77
2023/06/05 11:09:09;;;;;;;2.55;1.80;;;;;;;27.71;54.27;99677.84;5073417;28;20199;-77
2023/06/05 11:12:06;;;;;;;1.95;1.60;;;;;;;28.02;52.72;99672.91;5073704;28;20222;-77
2023/06/05 11:14:52;;;;;;;3.90;1.67;;;;;;;28.01;51.67;99666.81;5013633;28;20209;-77
2023/06/05 11:17:29;;;;;;;3.13;2.08;;;;;;;27.97;54.08;99657.75;5070936;28;20271;-77
2023/06/05 11:19:56;;;;;;;2.25;1.67;;;;;;;28.29;56.70;99657.78;5077773;28;20214;-77
2023/06/05 11:22:23;;;;;;;2.15;1.67;;;;;;;28.36;52.62;99663.78;5075873;28;20598;-77
2023/06/05 11:25:24;;;;;;;2.40;1.73;;;;;;;28.44;53.32;99660.94;5076227;28;20243;-77
2023/06/05 11:27:52;;;;;;;3.67;1.92;;;;;;;28.50;51.60;99664.53;5077295;28;20210;-78
2023/06/05 11:30:23;;;;;;;4.28;2.05;;;;;;;28.58;54.21;99651.13;5076982;28;20223;-77
2023/06/05 11:32:51;;;;;;;3.05;1.63;;;;;;;28.77;52.64;99659.84;5074014;28;20206;-77
2023/06/05 11:35:21;;;;;;;1.90;1.70;;;;;;;28.97;52.58;99657.84;5072795;28;20241;-77
2023/06/05 11:37:48;;;;;;;3.00;2.10;;;;;;;28.80;50.49;99652.34;5072793;28;20573;-76